Time;durP1;ratioP1;P1;durP2;ratioP2;P2;SDS_P1;SDS_P2;PMS_P1;PMS_P2;Temp;Humidity;BMP_temperature;BMP_pressure;BME280_temperature;BME280_humidity;BME280_pressure;Samples;Min_cycle;Max_cycle;Signal;HPM_P1;HPM_P2
2023/04/30 00:00:14;;;;;;;14.52;3.90;;;8.60;99.90;;;;;;5112182;28;20227;-79
2023/04/30 00:02:40;;;;;;;8.57;3.28;;;8.60;99.90;;;;;;5076085;28;20197;-81
2023/04/30 00:05:06;;;;;;;12.43;3.78;;;8.70;99.90;;;;;;5093141;28;20189;-79
2023/04/30 00:07:32;;;;;;;10.52;3.83;;;8.70;99.90;;;;;;5094646;28;20275;-79
2023/04/30 00:09:58;;;;;;;13.57;4.40;;;8.70;99.90;;;;;;5095244;28;20318;-79
2023/04/30 00:12:24;;;;;;;14.30;3.65;;;8.70;99.90;;;;;;5111405;28;20631;-79
2023/04/30 00:14:50;;;;;;;11.80;4.18;;;8.70;99.90;;;;;;5111966;28;20251;-78
2023/04/30 00:17:16;;;;;;;13.68;4.45;;;8.60;99.90;;;;;;5112588;28;20291;-79
2023/04/30 00:19:42;;;;;;;14.10;3.85;;;8.60;99.90;;;;;;5112314;28;20743;-79
2023/04/30 00:22:08;;;;;;;18.50;4.70;;;8.60;99.90;;;;;;5076792;28;20186;-79
2023/04/30 00:24:33;;;;;;;18.17;4.95;;;8.60;99.90;;;;;;5071849;28;20183;-79
2023/04/30 00:26:59;;;;;;;16.92;4.85;;;8.50;99.90;;;;;;5084587;28;20601;-79
2023/04/30 00:29:25;;;;;;;15.15;4.88;;;8.40;99.90;;;;;;5071786;28;20214;-80
2023/04/30 00:31:51;;;;;;;15.05;4.80;;;8.40;99.90;;;;;;5085380;28;20209;-79
2023/04/30 00:34:17;;;;;;;18.30;5.28;;;8.30;99.90;;;;;;5091704;28;20590;-79
2023/04/30 00:36:42;;;;;;;11.85;4.85;;;8.30;99.90;;;;;;5091064;28;20281;-79
2023/04/30 00:39:08;;;;;;;15.82;5.10;;;8.30;99.90;;;;;;5096441;28;20209;-79
2023/04/30 00:41:35;;;;;;;13.75;4.88;;;8.40;99.90;;;;;;5095439;28;20643;-79
2023/04/30 00:44:03;;;;;;;12.93;4.75;;;8.40;99.90;;;;;;5095475;28;20269;-79
2023/04/30 00:46:29;;;;;;;10.23;4.70;;;8.40;99.90;;;;;;5094942;28;20545;-79
2023/04/30 00:48:55;;;;;;;14.60;5.35;;;8.40;99.90;;;;;;5078530;28;20174;-80
2023/04/30 00:51:22;;;;;;;15.35;5.07;;;8.40;99.90;;;;;;5094182;28;20209;-80
2023/04/30 00:53:48;;;;;;;15.32;4.90;;;8.40;99.90;;;;;;5078016;28;20214;-78
2023/04/30 00:56:15;;;;;;;12.48;4.38;;;8.40;99.90;;;;;;5076204;28;20186;-81
2023/04/30 00:58:41;;;;;;;13.07;4.22;;;8.40;99.90;;;;;;5094479;28;20182;-78
2023/04/30 01:01:07;;;;;;;13.15;4.15;;;8.40;99.90;;;;;;5094328;28;20277;-78
2023/04/30 01:03:34;;;;;;;14.75;4.57;;;8.40;99.90;;;;;;5096646;28;20208;-78
2023/04/30 01:06:02;;;;;;;9.70;4.18;;;8.40;99.90;;;;;;5094201;28;20189;-80
2023/04/30 01:08:29;;;;;;;19.60;4.30;;;8.40;99.90;;;;;;5090594;28;20177;-79
2023/04/30 01:11:13;;;;;;;10.57;3.92;;;8.30;99.90;;;;;;5072743;28;20170;-79
2023/04/30 01:13:50;;;;;;;12.65;3.88;;;8.30;99.90;;;;;;5077244;28;20198;-79
2023/04/30 01:16:26;;;;;;;12.82;4.30;;;8.30;99.90;;;;;;5095877;28;20244;-79
2023/04/30 01:19:08;;;;;;;17.05;4.85;;;8.30;99.90;;;;;;5094473;28;20230;-79
2023/04/30 01:21:40;;;;;;;16.98;4.70;;;8.30;99.90;;;;;;5078715;28;20273;-79
2023/04/30 01:24:15;;;;;;;12.88;4.55;;;8.30;99.90;;;;;;5066479;28;20300;-78
2023/04/30 01:27:11;;;;;;;12.23;4.90;;;8.20;99.90;;;;;;5087174;28;20182;-78
2023/04/30 01:29:40;;;;;;;21.63;4.88;;;8.20;99.90;;;;;;5091696;28;20171;-79
2023/04/30 01:32:06;;;;;;;13.68;5.38;;;8.20;99.90;;;;;;5093968;28;20205;-79
2023/04/30 01:34:32;;;;;;;13.35;4.63;;;8.20;99.90;;;;;;5094505;28;20213;-79
2023/04/30 01:37:23;;;;;;;11.32;4.70;;;8.20;99.90;;;;;;5093615;28;20182;-80
2023/04/30 01:40:12;;;;;;;14.15;5.10;;;8.10;99.90;;;;;;5091531;28;20185;-80
2023/04/30 01:42:51;;;;;;;16.08;5.35;;;8.10;99.90;;;;;;5090781;28;20174;-80
2023/04/30 01:45:20;;;;;;;17.63;4.88;;;8.10;99.90;;;;;;5093031;28;20590;-80
2023/04/30 01:47:52;;;;;;;14.00;4.40;;;8.10;99.90;;;;;;5071779;28;20222;-80
2023/04/30 01:50:38;;;;;;;15.82;4.80;;;8.00;99.90;;;;;;5074968;28;20182;-80
2023/04/30 01:53:12;;;;;;;13.82;4.90;;;8.00;99.90;;;;;;5084600;28;20664;-80
2023/04/30 01:55:56;;;;;;;13.93;4.88;;;8.00;99.90;;;;;;5076111;28;20632;-80
2023/04/30 01:58:24;;;;;;;10.15;5.13;;;8.00;99.90;;;;;;5093256;28;20181;-80
2023/04/30 02:00:51;;;;;;;11.80;5.13;;;7.90;99.90;;;;;;5079991;28;20595;-80
2023/04/30 02:03:17;;;;;;;12.68;5.70;;;8.00;99.90;;;;;;5095296;28;20181;-79
2023/04/30 02:05:43;;;;;;;15.25;5.82;;;7.90;99.90;;;;;;5076649;28;20188;-80
2023/04/30 02:08:09;;;;;;;11.68;5.45;;;7.80;99.90;;;;;;5076621;28;20206;-80
2023/04/30 02:10:35;;;;;;;19.08;5.80;;;7.90;99.90;;;;;;5093138;28;20200;-80
2023/04/30 02:13:01;;;;;;;14.15;5.70;;;7.90;99.90;;;;;;5093464;28;20221;-80
2023/04/30 02:15:27;;;;;;;15.80;5.47;;;7.80;99.90;;;;;;5074924;28;20193;-80
2023/04/30 02:17:53;;;;;;;19.50;5.63;;;7.80;99.90;;;;;;5075980;28;20186;-80
2023/04/30 02:20:19;;;;;;;15.10;4.78;;;7.80;99.90;;;;;;5075636;28;20704;-79
2023/04/30 02:22:45;;;;;;;13.48;4.93;;;7.70;99.90;;;;;;5073566;28;20616;-79
2023/04/30 02:25:13;;;;;;;11.73;5.03;;;7.80;99.90;;;;;;5083565;28;20540;-79
2023/04/30 02:27:39;;;;;;;13.52;4.82;;;7.80;99.90;;;;;;5078775;28;20182;-79
2023/04/30 02:30:06;;;;;;;11.35;4.30;;;7.80;99.90;;;;;;5093637;28;20315;-80
2023/04/30 02:32:32;;;;;;;16.98;5.15;;;7.80;99.90;;;;;;5075082;28;20178;-82
2023/04/30 02:34:57;;;;;;;14.60;4.38;;;7.80;99.90;;;;;;5088862;28;20197;-79
2023/04/30 02:37:23;;;;;;;12.15;4.82;;;7.70;99.90;;;;;;5090518;28;20190;-80
2023/04/30 02:39:50;;;;;;;12.35;5.00;;;7.70;99.90;;;;;;5090200;28;20186;-80
2023/04/30 02:42:15;;;;;;;14.52;4.85;;;7.70;99.90;;;;;;5091896;28;20178;-80
2023/04/30 02:44:42;;;;;;;14.55;4.70;;;7.70;99.90;;;;;;5065107;28;20189;-80
2023/04/30 02:47:08;;;;;;;17.13;4.68;;;7.70;99.90;;;;;;5091429;28;20240;-81
2023/04/30 02:49:34;;;;;;;16.30;4.70;;;7.70;99.90;;;;;;5059339;28;20182;-80
2023/04/30 02:52:00;;;;;;;15.35;4.97;;;7.70;99.90;;;;;;5092247;28;20189;-81
2023/04/30 02:54:26;;;;;;;14.98;5.20;;;7.70;99.90;;;;;;5092465;28;20213;-81
2023/04/30 02:56:52;;;;;;;15.20;4.80;;;7.70;99.90;;;;;;5090245;28;20184;-81
2023/04/30 02:59:18;;;;;;;16.48;4.82;;;7.70;99.90;;;;;;5090885;28;20174;-81
2023/04/30 03:01:44;;;;;;;8.80;4.60;;;7.70;99.90;;;;;;5074370;28;20631;-82
2023/04/30 03:04:09;;;;;;;10.50;4.60;;;7.80;99.90;;;;;;5075409;28;20189;-80
2023/04/30 03:06:35;;;;;;;10.18;4.82;;;7.80;99.90;;;;;;5090534;28;20212;-81
2023/04/30 03:09:01;;;;;;;11.43;4.68;;;7.80;99.90;;;;;;5072362;28;20577;-78
2023/04/30 03:11:27;;;;;;;12.23;4.57;;;7.80;99.90;;;;;;5083413;28;20196;-79
2023/04/30 03:13:54;;;;;;;14.85;4.65;;;7.80;99.90;;;;;;5075756;28;20217;-79
2023/04/30 03:16:20;;;;;;;13.45;5.22;;;7.80;99.90;;;;;;5067709;28;20239;-81
2023/04/30 03:18:48;;;;;;;16.95;4.60;;;7.90;99.90;;;;;;5072906;28;20649;-81
2023/04/30 03:21:14;;;;;;;17.50;5.22;;;7.90;99.90;;;;;;5081204;28;20174;-81
2023/04/30 03:23:40;;;;;;;9.95;5.10;;;7.80;99.90;;;;;;5094074;28;20177;-79
2023/04/30 03:26:05;;;;;;;14.65;4.85;;;7.80;99.90;;;;;;5093075;28;20182;-80
2023/04/30 03:28:31;;;;;;;11.38;5.07;;;7.90;99.90;;;;;;5092570;28;20182;-80
2023/04/30 03:30:58;;;;;;;13.80;4.57;;;7.90;99.90;;;;;;5088956;28;20240;-80
2023/04/30 03:33:24;;;;;;;12.65;4.82;;;7.90;99.90;;;;;;5064222;28;20213;-80
2023/04/30 03:35:50;;;;;;;9.13;4.32;;;7.90;99.90;;;;;;5078056;28;20183;-80
2023/04/30 03:38:16;;;;;;;15.68;5.03;;;7.90;99.90;;;;;;5093285;28;20284;-81
2023/04/30 03:40:42;;;;;;;14.95;5.00;;;7.80;99.90;;;;;;5075064;28;20639;-80
2023/04/30 03:43:07;;;;;;;14.27;5.45;;;7.90;99.90;;;;;;5092371;28;20186;-79
2023/04/30 03:45:33;;;;;;;12.00;4.78;;;7.90;99.90;;;;;;5091915;28;20196;-79
2023/04/30 03:47:59;;;;;;;14.55;4.53;;;7.80;99.90;;;;;;5058532;28;20237;-80
2023/04/30 03:50:25;;;;;;;16.48;5.05;;;7.80;99.90;;;;;;5091104;28;20189;-81
2023/04/30 03:52:51;;;;;;;10.40;4.72;;;7.80;99.90;;;;;;5071905;28;20582;-80
2023/04/30 03:55:17;;;;;;;15.80;5.22;;;7.70;99.90;;;;;;5078583;28;20197;-80
2023/04/30 03:57:43;;;;;;;13.10;4.80;;;7.70;99.90;;;;;;5075487;28;20182;-80
2023/04/30 04:00:10;;;;;;;14.32;5.05;;;7.60;99.90;;;;;;5091968;28;20194;-83
2023/04/30 04:02:42;;;;;;;16.45;5.55;;;7.60;99.90;;;;;;5072619;28;20178;-80
2023/04/30 04:05:10;;;;;;;8.77;4.82;;;7.60;99.90;;;;;;5091999;28;20265;-82
2023/04/30 04:07:35;;;;;;;16.63;5.00;;;7.60;99.90;;;;;;5075304;28;20205;-79
2023/04/30 04:10:01;;;;;;;12.68;4.85;;;7.60;99.90;;;;;;5092090;28;20235;-80
2023/04/30 04:12:28;;;;;;;20.17;5.28;;;7.60;99.90;;;;;;5059704;28;20193;-81
2023/04/30 04:14:54;;;;;;;14.93;5.65;;;7.60;99.90;;;;;;5079351;28;20181;-80
2023/04/30 04:17:21;;;;;;;10.18;4.95;;;7.70;99.90;;;;;;5093220;28;20188;-79
2023/04/30 04:19:46;;;;;;;16.88;5.30;;;7.60;99.90;;;;;;5094942;28;20260;-80
2023/04/30 04:22:14;;;;;;;12.88;5.05;;;7.70;99.90;;;;;;5066506;28;20189;-80
2023/04/30 04:24:40;;;;;;;10.23;5.07;;;7.70;99.90;;;;;;5059008;28;20182;-81
2023/04/30 04:27:06;;;;;;;19.15;5.20;;;7.70;99.90;;;;;;5074922;28;20221;-80
2023/04/30 04:29:32;;;;;;;13.93;5.55;;;7.60;99.90;;;;;;5095665;28;20206;-81
2023/04/30 04:32:01;;;;;;;11.95;5.32;;;7.60;99.90;;;;;;5076415;28;20181;-81
2023/04/30 04:34:28;;;;;;;15.23;5.57;;;7.60;99.90;;;;;;5076376;28;20210;-80
2023/04/30 04:36:54;;;;;;;12.50;6.00;;;7.60;99.90;;;;;;5094647;28;20662;-80
2023/04/30 04:39:20;;;;;;;12.75;5.47;;;7.50;99.90;;;;;;5095814;28;20623;-80
2023/04/30 04:41:45;;;;;;;14.38;5.28;;;7.60;99.90;;;;;;5058506;28;20665;-79
2023/04/30 04:44:12;;;;;;;13.57;5.15;;;7.50;99.90;;;;;;5075399;28;20281;-80
2023/04/30 04:46:40;;;;;;;13.40;5.65;;;7.60;99.90;;;;;;5070816;28;20273;-83
2023/04/30 04:49:07;;;;;;;15.10;5.95;;;7.60;99.90;;;;;;5075020;28;20372;-79
2023/04/30 04:51:34;;;;;;;16.38;6.15;;;7.60;99.90;;;;;;5086998;28;20704;-79
2023/04/30 04:54:01;;;;;;;13.02;6.15;;;7.50;99.90;;;;;;5087034;28;20300;-82
2023/04/30 04:56:27;;;;;;;12.73;5.72;;;7.50;99.90;;;;;;5090844;28;20327;-81
2023/04/30 04:58:52;;;;;;;12.50;6.00;;;7.50;99.90;;;;;;5078933;28;20281;-80
2023/04/30 05:01:18;;;;;;;17.05;5.93;;;7.60;99.90;;;;;;5096106;28;20186;-79
2023/04/30 05:03:46;;;;;;;8.98;4.97;;;7.60;99.90;;;;;;5045782;28;20632;-84
2023/04/30 05:06:12;;;;;;;13.95;5.45;;;7.60;99.90;;;;;;5094884;28;20178;-78
2023/04/30 05:08:37;;;;;;;15.38;5.05;;;7.60;99.90;;;;;;5077416;28;20189;-80
2023/04/30 05:11:03;;;;;;;14.73;5.35;;;7.60;99.90;;;;;;5059507;28;20263;-79
2023/04/30 05:13:29;;;;;;;17.58;5.40;;;7.60;99.90;;;;;;5094584;28;20270;-78
2023/04/30 05:15:55;;;;;;;14.93;5.40;;;7.70;99.90;;;;;;5095172;28;20647;-78
2023/04/30 05:18:21;;;;;;;13.18;4.93;;;7.70;99.90;;;;;;5093196;28;20271;-78
2023/04/30 05:20:46;;;;;;;11.82;5.13;;;7.70;99.90;;;;;;5094168;28;20190;-78
2023/04/30 05:23:12;;;;;;;15.38;5.05;;;7.70;99.90;;;;;;5095652;28;20213;-78
2023/04/30 05:25:38;;;;;;;12.30;4.78;;;7.80;99.90;;;;;;5095669;28;20235;-82
2023/04/30 05:28:05;;;;;;;16.65;5.28;;;7.80;99.90;;;;;;5092899;28;20216;-78
2023/04/30 05:30:31;;;;;;;15.93;5.32;;;7.80;99.90;;;;;;5090679;28;20178;-78
2023/04/30 05:32:57;;;;;;;10.27;5.53;;;7.80;99.90;;;;;;5095179;28;20740;-78
2023/04/30 05:35:23;;;;;;;13.48;5.47;;;7.90;99.90;;;;;;5095468;28;20174;-78
2023/04/30 05:37:49;;;;;;;18.60;5.57;;;7.90;99.90;;;;;;5091608;28;20178;-79
2023/04/30 05:40:14;;;;;;;13.63;5.32;;;8.00;99.90;;;;;;5093579;28;21925;-78
2023/04/30 05:42:42;;;;;;;14.25;5.75;;;8.00;99.90;;;;;;5094775;28;20186;-80
2023/04/30 05:45:11;;;;;;;19.42;6.65;;;8.10;99.90;;;;;;5095234;28;20187;-78
2023/04/30 05:47:37;;;;;;;24.70;6.55;;;8.10;99.90;;;;;;5094387;28;20320;-78
2023/04/30 05:50:03;;;;;;;17.65;6.60;;;8.10;99.90;;;;;;5094047;28;20221;-78
2023/04/30 05:52:29;;;;;;;13.18;6.60;;;8.20;99.90;;;;;;5093786;28;20193;-78
2023/04/30 05:54:54;;;;;;;21.15;8.38;;;8.20;99.90;;;;;;5093887;28;20218;-80
2023/04/30 05:57:21;;;;;;;21.40;8.75;;;8.20;99.90;;;;;;5113153;28;20264;-79
2023/04/30 05:59:47;;;;;;;20.65;11.43;;;8.20;99.90;;;;;;5103418;28;20182;-79
2023/04/30 06:02:13;;;;;;;26.33;12.65;;;8.30;99.90;;;;;;5076267;28;20192;-79
2023/04/30 06:04:39;;;;;;;24.25;12.20;;;8.30;99.90;;;;;;5094297;28;20182;-79
2023/04/30 06:07:04;;;;;;;22.15;13.68;;;8.30;99.90;;;;;;5093554;28;20323;-85
2023/04/30 06:09:30;;;;;;;19.13;7.75;;;8.40;99.90;;;;;;5093240;28;20280;-80
2023/04/30 06:11:56;;;;;;;13.63;6.18;;;8.40;99.90;;;;;;5093794;28;20239;-79
2023/04/30 06:14:23;;;;;;;21.58;5.85;;;8.50;99.90;;;;;;5107424;28;20210;-81
2023/04/30 06:16:49;;;;;;;18.00;5.40;;;8.60;99.90;;;;;;5094739;28;20181;-79
2023/04/30 06:19:15;;;;;;;20.88;6.47;;;8.60;99.90;;;;;;5094546;28;20208;-78
2023/04/30 06:21:44;;;;;;;16.27;5.70;;;8.60;99.90;;;;;;5092547;28;20218;-82
2023/04/30 06:24:10;;;;;;;20.25;5.28;;;8.70;99.90;;;;;;5093791;28;20217;-80
2023/04/30 06:26:36;;;;;;;16.27;5.15;;;8.80;99.90;;;;;;5092924;28;20209;-80
2023/04/30 06:29:01;;;;;;;16.65;4.60;;;8.90;99.90;;;;;;5076580;28;20182;-79
2023/04/30 06:31:27;;;;;;;11.48;4.63;;;9.00;99.90;;;;;;5073202;28;20175;-80
2023/04/30 06:33:53;;;;;;;16.73;4.97;;;9.00;99.90;;;;;;5083806;28;20212;-79
2023/04/30 06:36:19;;;;;;;11.10;4.63;;;9.10;99.90;;;;;;5092466;28;20269;-81
2023/04/30 06:38:48;;;;;;;13.05;4.65;;;9.20;99.90;;;;;;5092097;28;20226;-80
2023/04/30 06:41:15;;;;;;;21.77;4.80;;;9.20;99.90;;;;;;5093078;28;20631;-81
2023/04/30 06:43:41;;;;;;;12.15;4.60;;;9.30;99.90;;;;;;5092107;28;20197;-81
2023/04/30 06:46:07;;;;;;;12.80;4.55;;;9.30;99.90;;;;;;5093146;28;20189;-80
2023/04/30 06:48:33;;;;;;;17.65;4.65;;;9.40;99.90;;;;;;5093542;28;20225;-79
2023/04/30 06:51:01;;;;;;;16.08;4.50;;;9.50;99.90;;;;;;5093803;28;20258;-83
2023/04/30 06:53:27;;;;;;;15.13;4.38;;;9.50;99.90;;;;;;5090252;28;20229;-78
2023/04/30 06:55:54;;;;;;;14.55;4.75;;;9.50;99.90;;;;;;5088824;28;20178;-79
2023/04/30 06:58:19;;;;;;;12.40;4.50;;;9.50;99.90;;;;;;5088535;28;20234;-78
2023/04/30 07:00:45;;;;;;;15.38;4.90;;;9.50;99.90;;;;;;5073773;28;20665;-79
2023/04/30 07:03:11;;;;;;;12.82;4.70;;;9.50;99.90;;;;;;5091509;28;20196;-79
2023/04/30 07:05:37;;;;;;;17.23;5.35;;;9.50;99.90;;;;;;5088301;28;20182;-79
2023/04/30 07:08:03;;;;;;;11.85;4.65;;;9.50;99.90;;;;;;5038087;28;20260;-79
2023/04/30 07:10:30;;;;;;;13.00;4.43;;;9.60;99.90;;;;;;5073177;28;20259;-79
2023/04/30 07:12:56;;;;;;;10.27;4.35;;;9.60;99.90;;;;;;5059406;28;20674;-79
2023/04/30 07:15:22;;;;;;;16.98;4.05;;;9.70;99.90;;;;;;5082728;28;20194;-79
2023/04/30 07:17:48;;;;;;;18.35;4.68;;;9.80;99.90;;;;;;5092147;28;20215;-79
2023/04/30 07:20:14;;;;;;;10.77;4.18;;;9.80;99.90;;;;;;5092243;28;20181;-80
2023/04/30 07:22:44;;;;;;;14.32;3.95;;;9.90;99.90;;;;;;5074115;28;20193;-80
2023/04/30 07:25:14;;;;;;;15.77;3.55;;;9.90;99.90;;;;;;5068687;28;20236;-79
2023/04/30 07:27:40;;;;;;;10.05;3.47;;;10.00;99.90;;;;;;5088721;28;20186;-82
2023/04/30 07:30:10;;;;;;;10.88;3.38;;;10.10;99.90;;;;;;5091190;28;20235;-79
2023/04/30 07:32:37;;;;;;;16.85;3.83;;;10.10;99.90;;;;;;5074808;28;20204;-79
2023/04/30 07:35:03;;;;;;;16.27;3.85;;;10.30;99.90;;;;;;5090799;28;20181;-79
2023/04/30 07:37:29;;;;;;;9.85;3.28;;;10.30;99.90;;;;;;5062111;28;20603;-79
2023/04/30 07:39:55;;;;;;;10.65;3.28;;;10.40;99.90;;;;;;5091708;28;20257;-79
2023/04/30 07:42:21;;;;;;;14.93;3.33;;;10.50;99.90;;;;;;5074426;28;20188;-81
2023/04/30 07:44:51;;;;;;;10.98;3.13;;;10.60;99.90;;;;;;5055686;28;20273;-81
2023/04/30 07:47:18;;;;;;;10.32;2.78;;;10.70;99.90;;;;;;5039198;28;20206;-81
2023/04/30 07:49:46;;;;;;;14.73;3.20;;;10.80;99.90;;;;;;5054936;28;20226;-84
2023/04/30 07:52:13;;;;;;;9.98;2.90;;;10.80;99.90;;;;;;5066441;28;20612;-80
2023/04/30 07:54:39;;;;;;;11.98;2.90;;;10.90;99.90;;;;;;5091609;28;20281;-81
2023/04/30 07:57:05;;;;;;;13.77;3.50;;;11.00;99.90;;;;;;5086280;28;20209;-80
2023/04/30 07:59:31;;;;;;;11.38;3.63;;;11.10;99.90;;;;;;5054876;28;20178;-78
2023/04/30 08:01:57;;;;;;;10.02;3.28;;;11.20;99.90;;;;;;5085464;28;20200;-80
2023/04/30 08:04:23;;;;;;;9.57;2.97;;;11.20;99.90;;;;;;5090254;28;20201;-79
2023/04/30 08:06:49;;;;;;;12.00;3.33;;;11.20;99.90;;;;;;5077365;28;20190;-78
2023/04/30 08:09:15;;;;;;;10.02;2.80;;;11.20;99.90;;;;;;5089072;28;20291;-79
2023/04/30 08:11:41;;;;;;;11.82;2.95;;;11.30;99.90;;;;;;5079235;28;20653;-79
2023/04/30 08:14:07;;;;;;;17.08;3.13;;;11.30;99.90;;;;;;5071002;28;20610;-80
2023/04/30 08:16:33;;;;;;;15.13;3.20;;;11.30;99.90;;;;;;5082995;28;20197;-79
2023/04/30 08:18:59;;;;;;;16.80;3.40;;;11.40;99.90;;;;;;5069646;28;20293;-79
2023/04/30 08:21:26;;;;;;;12.55;3.38;;;11.40;99.90;;;;;;5073066;28;20182;-80
2023/04/30 08:23:53;;;;;;;12.07;3.58;;;11.50;99.90;;;;;;5073863;28;20198;-80
2023/04/30 08:26:19;;;;;;;10.05;2.85;;;11.50;99.90;;;;;;5090844;28;20181;-80
2023/04/30 08:28:45;;;;;;;12.85;3.22;;;11.50;99.90;;;;;;5091012;28;20185;-81
2023/04/30 08:31:12;;;;;;;19.27;3.50;;;11.60;99.90;;;;;;5082889;28;20209;-80
2023/04/30 08:33:38;;;;;;;10.95;3.17;;;11.70;99.90;;;;;;5089160;28;20217;-81
2023/04/30 08:36:04;;;;;;;15.82;3.15;;;11.70;99.90;;;;;;5091336;28;20174;-81
2023/04/30 08:38:30;;;;;;;12.18;3.45;;;11.80;99.90;;;;;;5089806;28;20710;-79
2023/04/30 08:41:12;;;;;;;12.82;3.30;;;11.80;99.90;;;;;;5092396;28;20206;-80
2023/04/30 08:43:39;;;;;;;12.15;2.90;;;11.90;99.90;;;;;;5072834;28;20185;-81
2023/04/30 08:46:05;;;;;;;13.05;3.30;;;12.00;99.90;;;;;;5082933;28;20227;-79
2023/04/30 08:48:31;;;;;;;12.45;2.97;;;12.10;99.90;;;;;;5111255;28;20225;-80
2023/04/30 08:51:02;;;;;;;10.90;3.30;;;12.20;99.90;;;;;;5112531;28;20177;-80
2023/04/30 08:53:30;;;;;;;9.68;2.95;;;12.30;99.90;;;;;;5102521;28;20238;-81
2023/04/30 08:55:57;;;;;;;9.27;2.53;;;12.30;99.90;;;;;;5090659;28;20190;-81
2023/04/30 08:58:23;;;;;;;14.55;3.28;;;12.30;99.90;;;;;;5091588;28;20181;-80
2023/04/30 09:00:48;;;;;;;11.13;2.85;;;12.30;99.90;;;;;;5096051;28;20186;-81
2023/04/30 09:03:15;;;;;;;10.10;3.20;;;12.40;99.90;;;;;;5091004;28;20315;-81
2023/04/30 09:05:40;;;;;;;10.05;2.92;;;12.50;99.90;;;;;;5093911;28;20186;-81
2023/04/30 09:08:10;;;;;;;8.68;2.90;;;12.50;99.90;;;;;;5076384;28;20666;-82
2023/04/30 09:10:36;;;;;;;12.45;3.40;;;12.60;99.90;;;;;;5093175;28;20201;-81
2023/04/30 09:13:04;;;;;;;15.60;2.55;;;12.60;99.90;;;;;;5074354;28;20210;-81
2023/04/30 09:15:31;;;;;;;12.95;2.88;;;12.60;99.90;;;;;;5075464;28;20224;-80
2023/04/30 09:18:11;;;;;;;9.48;2.72;;;12.60;99.90;;;;;;5075413;28;20183;-80
2023/04/30 09:20:37;;;;;;;16.42;2.85;;;12.70;99.90;;;;;;5078089;28;20181;-81
2023/04/30 09:23:10;;;;;;;10.57;3.00;;;12.70;99.90;;;;;;5094117;28;20182;-81
2023/04/30 09:25:41;;;;;;;11.07;3.47;;;12.70;99.90;;;;;;5094840;28;20185;-81
2023/04/30 09:28:11;;;;;;;9.18;3.17;;;12.70;99.90;;;;;;5095615;28;20186;-81
2023/04/30 09:30:38;;;;;;;11.60;2.80;;;12.70;99.90;;;;;;5094381;28;20177;-82
2023/04/30 09:33:04;;;;;;;14.30;3.70;;;12.80;99.90;;;;;;5095034;28;20263;-81
2023/04/30 09:35:38;;;;;;;11.32;3.20;;;12.80;99.90;;;;;;5077426;28;20710;-81
2023/04/30 09:38:04;;;;;;;9.88;2.72;;;12.90;99.90;;;;;;5074112;28;20190;-81
2023/04/30 09:40:40;;;;;;;15.70;3.15;;;12.90;99.90;;;;;;5075958;28;20328;-82
2023/04/30 09:43:07;;;;;;;10.73;3.28;;;12.90;99.90;;;;;;5095443;28;20178;-80
2023/04/30 09:45:47;;;;;;;12.68;3.13;;;12.90;99.90;;;;;;5076873;28;20316;-81
2023/04/30 09:48:24;;;;;;;16.83;3.67;;;12.90;99.90;;;;;;5093986;28;20686;-80
2023/04/30 09:50:51;;;;;;;7.60;2.70;;;13.00;99.90;;;;;;5094821;28;20236;-83
2023/04/30 09:53:17;;;;;;;9.73;2.83;;;13.00;99.90;;;;;;5083686;28;20217;-80
2023/04/30 09:55:45;;;;;;;10.18;2.95;;;13.00;99.90;;;;;;5083641;28;20204;-79
2023/04/30 09:58:12;;;;;;;9.70;3.38;;;13.00;99.90;;;;;;5089145;28;20201;-79
2023/04/30 10:00:38;;;;;;;13.27;3.00;;;13.10;99.90;;;;;;5081455;28;20189;-80
2023/04/30 10:03:15;;;;;;;12.93;3.42;;;13.20;99.90;;;;;;5067054;28;20190;-82
2023/04/30 10:05:45;;;;;;;8.23;3.13;;;13.20;99.90;;;;;;5081613;28;20197;-89
2023/04/30 10:08:24;;;;;;;11.23;3.50;;;13.40;99.90;;;;;;5076547;28;20189;-79
2023/04/30 10:10:57;;;;;;;17.88;3.63;;;13.50;99.90;;;;;;5090518;28;20227;-81
2023/04/30 10:13:27;;;;;;;14.13;3.38;;;13.70;99.90;;;;;;5085807;28;20314;-84
2023/04/30 10:16:00;;;;;;;9.90;3.40;;;13.80;99.90;;;;;;5089266;28;20178;-79
2023/04/30 10:18:30;;;;;;;12.18;3.20;;;13.90;99.90;;;;;;5073093;28;20178;-79
2023/04/30 10:20:58;;;;;;;6.00;2.80;;;14.00;99.90;;;;;;5085488;28;20181;-79
2023/04/30 10:23:24;;;;;;;11.15;3.20;;;14.10;99.90;;;;;;5074610;28;20269;-79
2023/04/30 10:25:50;;;;;;;11.38;3.35;;;14.20;99.60;;;;;;5088134;28;20239;-81
2023/04/30 10:28:16;;;;;;;9.98;3.75;;;14.40;99.20;;;;;;5087589;28;20183;-80
2023/04/30 10:30:42;;;;;;;15.95;3.67;;;14.40;99.00;;;;;;5086751;28;20181;-80
2023/04/30 10:33:14;;;;;;;13.45;3.53;;;14.60;98.90;;;;;;5088646;28;20210;-81
2023/04/30 10:36:03;;;;;;;11.98;3.78;;;14.70;98.50;;;;;;5070952;28;20754;-81
2023/04/30 10:38:31;;;;;;;11.35;4.20;;;14.80;98.30;;;;;;5059623;28;20261;-80
2023/04/30 10:41:00;;;;;;;10.02;3.42;;;15.00;98.00;;;;;;5079535;28;20635;-79
2023/04/30 10:43:29;;;;;;;8.95;3.35;;;15.00;97.50;;;;;;5085055;28;20213;-80
2023/04/30 10:45:57;;;;;;;10.82;3.08;;;15.00;97.20;;;;;;5089634;28;20178;-80
2023/04/30 10:48:24;;;;;;;10.25;3.58;;;15.00;97.10;;;;;;5088515;28;20217;-82
2023/04/30 10:50:59;;;;;;;9.48;3.67;;;15.10;97.30;;;;;;5092585;28;20196;-88
2023/04/30 10:53:29;;;;;;;11.13;3.55;;;15.10;97.00;;;;;;5060401;28;20201;-82
2023/04/30 10:56:05;;;;;;;12.45;3.72;;;15.20;97.00;;;;;;5078793;28;20657;-86
2023/04/30 10:58:37;;;;;;;11.63;3.90;;;15.30;96.90;;;;;;5082365;28;20177;-82
2023/04/30 11:01:10;;;;;;;14.88;3.83;;;15.20;97.00;;;;;;5091354;28;20182;-80
2023/04/30 11:03:39;;;;;;;8.20;3.55;;;15.30;97.00;;;;;;5092589;28;20193;-82
2023/04/30 11:06:12;;;;;;;11.63;3.60;;;15.30;96.90;;;;;;5090631;28;20670;-80
2023/04/30 11:08:41;;;;;;;11.05;3.78;;;15.30;96.90;;;;;;5092615;28;20178;-81
2023/04/30 11:11:08;;;;;;;18.42;4.68;;;15.30;96.80;;;;;;5079368;28;20182;-81
2023/04/30 11:13:45;;;;;;;12.35;4.18;;;15.30;96.90;;;;;;5084217;28;20300;-80
2023/04/30 11:16:11;;;;;;;10.55;3.60;;;15.30;96.90;;;;;;5069872;28;20210;-80
2023/04/30 11:18:47;;;;;;;11.38;3.67;;;15.30;96.80;;;;;;5068088;28;20213;-81
2023/04/30 11:21:13;;;;;;;9.05;3.67;;;15.30;97.10;;;;;;5070838;28;20627;-85
2023/04/30 11:23:43;;;;;;;11.85;3.83;;;15.40;96.70;;;;;;5085709;28;20188;-79
2023/04/30 11:26:09;;;;;;;7.80;3.70;;;15.40;96.50;;;;;;5082760;28;20184;-83
2023/04/30 11:28:36;;;;;;;16.92;3.65;;;15.50;96.50;;;;;;5089373;28;20216;-82
2023/04/30 11:31:03;;;;;;;8.95;3.65;;;15.60;96.30;;;;;;5090683;28;20647;-83
2023/04/30 11:33:30;;;;;;;6.78;3.78;;;15.70;95.90;;;;;;5089807;28;20262;-82
2023/04/30 11:35:57;;;;;;;7.75;3.40;;;15.70;95.50;;;;;;5091253;28;20188;-82
2023/04/30 11:38:28;;;;;;;11.70;3.33;;;15.70;95.40;;;;;;5088399;28;20268;-82
2023/04/30 11:40:56;;;;;;;9.18;3.67;;;15.60;95.10;;;;;;5090926;28;20601;-82
2023/04/30 11:43:32;;;;;;;10.35;3.13;;;15.70;95.20;;;;;;5091475;28;20178;-82
2023/04/30 11:46:04;;;;;;;6.22;3.30;;;15.80;95.00;;;;;;5087783;28;20177;-81
2023/04/30 11:48:32;;;;;;;10.15;3.15;;;15.80;94.80;;;;;;5054499;28;20179;-82
2023/04/30 11:50:57;;;;;;;4.70;2.60;;;15.90;94.60;;;;;;5089694;28;20651;-82
2023/04/30 11:53:28;;;;;;;9.45;3.25;;;16.00;94.80;;;;;;5091558;28;20205;-81
2023/04/30 11:55:54;;;;;;;6.57;2.88;;;16.00;94.40;;;;;;5089771;28;20650;-81
2023/04/30 11:58:21;;;;;;;8.77;3.10;;;16.20;94.20;;;;;;5063202;28;20179;-78
2023/04/30 12:00:47;;;;;;;8.02;3.38;;;16.20;93.90;;;;;;5056935;28;20209;-81
2023/04/30 12:03:15;;;;;;;7.95;2.80;;;16.20;93.90;;;;;;5085446;28;20190;-80
2023/04/30 12:05:40;;;;;;;6.55;3.30;;;16.30;94.00;;;;;;5074066;28;20193;-81
2023/04/30 12:08:07;;;;;;;6.72;2.60;;;16.30;93.40;;;;;;5082533;28;20623;-79
2023/04/30 12:10:34;;;;;;;5.93;2.88;;;16.40;93.50;;;;;;5087789;28;20182;-82
2023/04/30 12:13:01;;;;;;;6.85;3.58;;;16.50;93.30;;;;;;5091619;28;20189;-81
2023/04/30 12:15:27;;;;;;;5.07;2.92;;;16.50;92.90;;;;;;5075340;28;20270;-81
2023/04/30 12:17:58;;;;;;;5.97;2.67;;;16.40;92.90;;;;;;5089284;28;20232;-79
2023/04/30 12:20:30;;;;;;;5.43;2.63;;;16.50;93.00;;;;;;5070810;28;20587;-81
2023/04/30 12:22:57;;;;;;;7.90;3.15;;;16.60;93.10;;;;;;5071174;28;20305;-82
2023/04/30 12:25:23;;;;;;;6.60;3.20;;;16.60;92.80;;;;;;5056103;28;20204;-82
2023/04/30 12:27:53;;;;;;;6.40;2.63;;;16.50;92.90;;;;;;5071193;28;20186;-82
2023/04/30 12:30:20;;;;;;;5.72;2.88;;;16.60;93.10;;;;;;5088060;28;20676;-81
2023/04/30 12:32:50;;;;;;;5.18;2.25;;;16.70;92.90;;;;;;5088965;28;20181;-79
2023/04/30 12:35:19;;;;;;;7.15;2.83;;;16.80;92.80;;;;;;5062778;28;20194;-80
2023/04/30 12:37:49;;;;;;;4.45;2.40;;;16.80;92.50;;;;;;5073216;28;20594;-79
2023/04/30 12:40:15;;;;;;;5.93;2.83;;;16.70;92.30;;;;;;5091278;28;20537;-80
2023/04/30 12:42:44;;;;;;;3.97;2.50;;;16.70;92.20;;;;;;5093236;28;20190;-78
2023/04/30 12:45:10;;;;;;;8.25;2.70;;;16.70;92.40;;;;;;5093486;28;20360;-83
2023/04/30 12:47:42;;;;;;;5.78;2.60;;;16.80;92.30;;;;;;5093536;28;20182;-79